Time,TemperatureF,DewpointF,PressureIn,WindDirection,WindDirectionDegrees,WindSpeedMPH,WindSpeedGustMPH,Humidity,HourlyPrecipIn,Conditions,Clouds,dailyrainin,SoftwareType,DateUTC
2013-05-17 00:00:00,70.3,58.9,30.02,SE,135,0.0,0.0,67,0.00,CLR,,0.00,WeatherDisplay:10.37,2013-05-17 04:00:00,
2013-05-17 00:30:00,69.6,59.0,30.02,SE,135,0.0,0.0,69,0.00,CLR,,0.00,WeatherDisplay:10.37,2013-05-17 04:30:00,
2013-05-17 01:00:00,68.9,58.7,30.02,ESE,112,0.0,0.0,70,0.00,CLR,,0.00,WeatherDisplay:10.37,2013-05-17 05:00:00,
2013-05-17 01:30:00,68.4,59.0,30.02,WNW,292,0.0,2.0,72,0.00,CLR,,0.00,WeatherDisplay:10.37,2013-05-17 05:30:00,
2013-05-17 02:00:00,68.0,59.0,30.01,West,270,0.0,1.0,73,0.00,CLR,,0.00,WeatherDisplay:10.37,2013-05-17 06:00:00,
2013-05-17 02:30:00,67.3,58.7,30.01,West,270,0.0,0.0,74,0.00,CLR,,0.00,WeatherDisplay:10.37,2013-05-17 06:30:00,
2013-05-17 03:00:00,66.2,57.7,30.01,West,270,0.0,0.0,74,0.00,CLR,,0.00,WeatherDisplay:10.37,2013-05-17 07:00:00,
2013-05-17 03:30:00,65.7,57.5,30.02,West,270,0.0,0.0,75,0.00,CLR,,0.00,WeatherDisplay:10.37,2013-05-17 07:30:00,
2013-05-17 04:00:00,64.9,57.2,30.02,West,270,0.0,0.0,76,0.00,CLR,,0.00,WeatherDisplay:10.37,2013-05-17 08:00:00,
2013-05-17 04:30:00,64.4,56.7,30.03,West,270,0.0,0.0,76,0.00,CLR,,0.00,WeatherDisplay:10.37,2013-05-17 08:30:00,
2013-05-17 05:00:00,63.7,56.3,30.03,West,270,0.0,0.0,77,0.00,CLR,,0.00,WeatherDisplay:10.37,2013-05-17 09:00:00,
2013-05-17 05:30:00,63.3,56.0,30.04,West,270,0.0,0.0,77,0.00,CLR,,0.00,WeatherDisplay:10.37,2013-05-17 09:30:00,
2013-05-17 06:00:00,62.8,55.8,30.05,West,270,0.0,0.0,78,0.00,CLR,,0.00,WeatherDisplay:10.37,2013-05-17 10:00:00,
2013-05-17 06:30:00,62.2,54.9,30.06,WNW,295,0.0,0.0,77,0.00,CLR,,0.00,WeatherDisplay:10.37,2013-05-17 10:30:00,
2013-05-17 07:00:00,62.2,55.6,30.06,ENE,68,0.0,0.0,79,0.00,CLR,,0.00,WeatherDisplay:10.37,2013-05-17 11:00:00,
2013-05-17 07:30:00,62.3,56.0,30.08,NNE,24,0.0,0.0,80,0.00,CLR,,0.00,WeatherDisplay:10.37,2013-05-17 11:30:00,
2013-05-17 08:00:00,63.3,58.1,30.08,NW,315,0.0,0.0,83,0.00,CLR,,0.00,WeatherDisplay:10.37,2013-05-17 12:00:00,
2013-05-17 08:30:00,65.4,60.1,30.08,NW,308,0.0,1.0,83,0.00,CLR,,0.00,WeatherDisplay:10.37,2013-05-17 12:30:00,
2013-05-17 09:00:00,69.1,63.0,30.08,East,101,1.0,3.0,81,0.00,CLR,,0.00,WeatherDisplay:10.37,2013-05-17 13:00:00,
2013-05-17 09:30:00,73.4,64.6,30.09,East,90,1.0,2.0,74,0.00,CLR,,0.00,WeatherDisplay:10.37,2013-05-17 13:30:00,
2013-05-17 10:00:00,77.0,64.8,30.09,ESE,103,1.0,5.0,66,0.00,CLR,,0.00,WeatherDisplay:10.37,2013-05-17 14:00:00,
2013-05-17 10:30:00,80.0,66.3,30.10,East,101,3.0,5.0,63,0.00,CLR,,0.00,WeatherDisplay:10.37,2013-05-17 14:30:00,
2013-05-17 11:00:00,82.2,65.5,30.10,East,79,1.0,6.0,57,0.00,CLR,,0.00,WeatherDisplay:10.37,2013-05-17 15:00:00,
2013-05-17 11:30:00,84.4,67.0,30.10,ESE,106,3.0,6.0,56,0.00,CLR,,0.00,WeatherDisplay:10.37,2013-05-17 15:30:00,
2013-05-17 12:00:00,85.9,66.2,30.10,East,89,2.0,6.0,52,0.00,CLR,,0.00,WeatherDisplay:10.37,2013-05-17 16:00:00,
2013-05-17 12:30:00,86.7,62.8,30.09,WNW,302,1.0,5.0,45,0.00,CLR,,0.00,WeatherDisplay:10.37,2013-05-17 16:30:00,
2013-05-17 13:00:00,87.2,64.5,30.09,ESE,118,2.0,8.0,47,0.00,CLR,,0.00,WeatherDisplay:10.37,2013-05-17 17:00:00,
2013-05-17 13:30:00,88.4,65.0,30.08,ESE,118,3.0,7.0,46,0.00,CLR,,0.00,WeatherDisplay:10.37,2013-05-17 17:30:00,
2013-05-17 14:00:00,88.5,64.5,30.08,East,92,1.0,6.0,45,0.00,CLR,,0.00,WeatherDisplay:10.37,2013-05-17 18:00:00,
2013-05-17 14:30:00,88.1,65.3,30.07,ESE,118,2.0,7.0,47,0.00,CLR,,0.00,WeatherDisplay:10.37,2013-05-17 18:30:00,
2013-05-17 15:00:00,88.2,64.8,30.07,SE,131,6.0,8.0,46,0.00,CLR,,0.00,WeatherDisplay:10.37,2013-05-17 19:00:00,
2013-05-17 15:30:00,86.7,64.7,30.06,ESE,122,3.0,7.0,48,0.00,FEW,,0.00,WeatherDisplay:10.37,2013-05-17 19:30:00,
2013-05-17 16:00:00,86.0,63.4,30.05,East,98,5.0,8.0,47,0.00,FEW,,0.00,WeatherDisplay:10.37,2013-05-17 20:00:00,
2013-05-17 16:30:00,85.3,64.0,30.05,ESE,108,5.0,6.0,49,0.00,CLR,,0.00,WeatherDisplay:10.37,2013-05-17 20:30:00,
2013-05-17 17:00:00,84.1,63.5,30.05,ESE,121,5.0,8.0,50,0.00,CLR,,0.00,WeatherDisplay:10.37,2013-05-17 21:00:00,
2013-05-17 17:30:00,83.1,64.8,30.05,SE,143,2.0,8.0,54,0.00,FEW,,0.00,WeatherDisplay:10.37,2013-05-17 21:30:00,
2013-05-17 18:00:00,82.5,63.6,30.05,SE,128,2.0,8.0,53,0.00,FEW,,0.00,WeatherDisplay:10.37,2013-05-17 22:00:00,
2013-05-17 19:00:00,81.3,64.6,30.04,ESE,122,2.0,5.0,57,0.00,CLR,,0.00,WeatherDisplay:10.37,2013-05-17 23:00:00,
2013-05-17 19:30:00,80.6,65.4,30.05,ESE,112,1.0,2.0,60,0.00,FEW,,0.00,WeatherDisplay:10.37,2013-05-17 23:30:00,
2013-05-17 20:00:00,79.3,64.2,30.05,SE,131,1.0,4.0,60,0.00,FEW,,0.00,WeatherDisplay:10.37,2013-05-18 00:00:00,
2013-05-17 20:30:00,78.1,63.1,30.06,SE,145,0.0,2.0,60,0.00,BKN,,0.00,WeatherDisplay:10.37,2013-05-18 00:30:00,
2013-05-17 21:00:00,77.0,62.5,30.07,WNW,303,0.0,1.0,61,0.00,BKN,,0.00,WeatherDisplay:10.37,2013-05-18 01:00:00,
2013-05-17 21:30:00,76.1,63.1,30.08,WNW,292,0.0,0.0,64,0.00,SCT,,0.00,WeatherDisplay:10.37,2013-05-18 01:30:00,
2013-05-17 22:00:00,75.4,63.2,30.09,WNW,292,0.0,0.0,66,0.00,SCT,,0.00,WeatherDisplay:10.37,2013-05-18 02:00:00,
2013-05-17 22:30:00,74.5,62.9,30.09,WNW,292,0.0,0.0,67,0.00,SCT,,0.00,WeatherDisplay:10.37,2013-05-18 02:30:00,
2013-05-17 23:00:00,73.4,62.2,30.09,WNW,292,0.0,1.0,68,0.00,SCT,,0.00,WeatherDisplay:10.37,2013-05-18 03:00:00,
2013-05-17 23:30:00,72.1,61.8,30.10,WNW,292,0.0,1.0,70,0.00,CLR,,0.00,WeatherDisplay:10.37,2013-05-18 03:30:00,